createdAt,value
2017-07-05T00:01:04.369Z,16.50
2017-07-05T00:03:32.608Z,16.40
2017-07-05T00:06:00.818Z,16.40
2017-07-05T00:08:29.063Z,16.40
2017-07-05T00:10:58.059Z,16.30
2017-07-05T00:13:26.241Z,16.30
2017-07-05T00:15:54.508Z,16.30
2017-07-05T00:18:23.516Z,16.30
2017-07-05T00:20:51.723Z,16.30
2017-07-05T00:23:20.163Z,16.30
2017-07-05T00:25:49.140Z,16.20
2017-07-05T00:28:17.351Z,16.20
2017-07-05T00:30:45.555Z,16.20
2017-07-05T00:33:13.765Z,16.20
2017-07-05T00:35:41.974Z,16.20
2017-07-05T00:38:10.173Z,16.20
2017-07-05T00:40:38.378Z,16.10
2017-07-05T00:43:06.585Z,16.10
2017-07-05T00:45:35.561Z,16.10
2017-07-05T00:48:03.757Z,16.10
2017-07-05T00:50:31.970Z,16.00
2017-07-05T00:53:00.324Z,16.00
2017-07-05T00:55:28.514Z,16.00
2017-07-05T00:57:56.723Z,15.90
2017-07-05T01:00:24.944Z,15.90
2017-07-05T01:02:53.230Z,15.90
2017-07-05T01:05:21.442Z,15.80
2017-07-05T01:07:49.654Z,15.80
2017-07-05T01:10:17.869Z,15.80
2017-07-05T01:12:46.065Z,15.80
2017-07-05T01:15:14.290Z,15.80
2017-07-05T01:17:42.487Z,15.80
2017-07-05T01:20:10.745Z,15.80
2017-07-05T01:22:39.731Z,15.80
2017-07-05T01:25:07.943Z,15.70
2017-07-05T01:27:36.206Z,15.70
2017-07-05T01:30:04.454Z,15.70
2017-07-05T01:32:32.641Z,15.60
2017-07-05T01:35:00.829Z,15.60
2017-07-05T01:37:29.051Z,15.60
2017-07-05T01:39:57.277Z,15.60
2017-07-05T01:42:25.473Z,15.60
2017-07-05T01:44:53.677Z,15.60
2017-07-05T01:47:22.003Z,15.60
2017-07-05T01:49:50.994Z,15.50
2017-07-05T01:52:19.197Z,15.50
2017-07-05T01:54:47.415Z,15.50
2017-07-05T01:57:15.620Z,15.50
2017-07-05T01:59:43.840Z,15.50
2017-07-05T02:02:12.061Z,15.50
2017-07-05T02:04:40.286Z,15.40
2017-07-05T02:07:08.494Z,15.40
2017-07-05T02:09:36.922Z,15.40
2017-07-05T02:12:05.123Z,15.40
2017-07-05T02:14:33.343Z,15.30
2017-07-05T02:17:01.576Z,15.30
2017-07-05T02:19:29.816Z,15.30
2017-07-05T02:21:58.095Z,15.30
2017-07-05T02:24:26.328Z,15.20
2017-07-05T02:26:54.542Z,15.20
2017-07-05T02:29:22.935Z,15.20
2017-07-05T02:31:51.192Z,15.20
2017-07-05T02:34:20.174Z,15.10
2017-07-05T02:36:48.384Z,15.10
2017-07-05T02:39:16.647Z,15.10
2017-07-05T02:41:45.618Z,15.10
2017-07-05T02:44:13.829Z,15.00
2017-07-05T02:46:42.797Z,15.10
2017-07-05T02:49:11.001Z,15.00
2017-07-05T02:51:39.970Z,15.00
2017-07-05T02:54:08.187Z,15.00
2017-07-05T02:56:36.547Z,15.00
2017-07-05T02:59:04.921Z,15.00
2017-07-05T03:01:33.991Z,15.00
2017-07-05T03:04:02.198Z,15.00
2017-07-05T03:06:30.406Z,15.00
2017-07-05T03:08:58.605Z,15.00
2017-07-05T03:11:26.807Z,15.00
2017-07-05T03:13:55.042Z,15.00
2017-07-05T03:16:23.266Z,15.00
2017-07-05T03:18:52.235Z,15.00
2017-07-05T03:21:20.434Z,15.00
2017-07-05T03:23:49.423Z,15.00
2017-07-05T03:26:17.644Z,15.00
2017-07-05T03:28:45.882Z,15.00
2017-07-05T03:31:14.999Z,15.00
2017-07-05T03:33:43.207Z,15.00
2017-07-05T03:36:11.419Z,15.00
2017-07-05T03:38:39.637Z,15.00
2017-07-05T03:41:07.851Z,15.00
2017-07-05T03:43:36.054Z,15.00
2017-07-05T03:46:04.264Z,15.00
2017-07-05T03:48:32.454Z,15.00
2017-07-05T03:51:00.660Z,15.10
2017-07-05T03:53:28.858Z,15.10
2017-07-05T03:55:57.058Z,15.20
2017-07-05T03:58:25.266Z,15.20
2017-07-05T04:00:53.486Z,15.30
2017-07-05T04:03:21.794Z,15.30
2017-07-05T04:05:49.995Z,15.30
2017-07-05T04:08:18.202Z,15.40
2017-07-05T04:10:46.508Z,15.40
2017-07-05T04:13:14.719Z,15.50
2017-07-05T04:15:42.968Z,15.60
2017-07-05T04:18:11.171Z,15.60
2017-07-05T04:20:39.537Z,15.70
2017-07-05T04:23:07.738Z,15.80
2017-07-05T04:25:35.972Z,15.80
2017-07-05T04:28:04.162Z,15.90
2017-07-05T04:30:32.380Z,16.00
2017-07-05T04:33:00.704Z,16.10
2017-07-05T04:35:28.973Z,16.30
2017-07-05T04:37:57.946Z,16.40
2017-07-05T04:40:26.147Z,16.40
2017-07-05T04:42:55.119Z,16.60
2017-07-05T04:45:23.332Z,16.60
2017-07-05T04:47:51.543Z,16.70
2017-07-05T04:50:19.761Z,16.80
2017-07-05T04:52:47.966Z,16.90
2017-07-05T04:55:16.182Z,17.00
2017-07-05T04:57:44.505Z,17.20
2017-07-05T05:00:12.997Z,17.30
2017-07-05T05:02:41.199Z,17.30
2017-07-05T05:05:09.408Z,17.40
2017-07-05T05:07:37.706Z,17.40
2017-07-05T05:10:05.915Z,17.40
2017-07-05T05:12:34.126Z,17.50
2017-07-05T05:15:02.328Z,17.50
2017-07-05T05:17:30.544Z,17.60
2017-07-05T05:19:58.749Z,17.70
2017-07-05T05:22:26.957Z,17.70
2017-07-05T05:24:55.165Z,18.20
2017-07-05T05:27:23.357Z,19.70
2017-07-05T05:29:51.646Z,21.00
2017-07-05T05:32:19.858Z,21.60
2017-07-05T05:34:48.059Z,22.70
2017-07-05T05:37:16.266Z,24.30
2017-07-05T05:39:44.455Z,25.80
2017-07-05T05:42:12.667Z,27.00
2017-07-05T05:44:41.643Z,29.40
2017-07-05T05:47:09.861Z,29.30
2017-07-05T05:49:38.841Z,30.70
2017-07-05T05:52:07.040Z,30.60
2017-07-05T05:54:35.293Z,30.70
2017-07-05T05:57:04.477Z,30.60
2017-07-05T05:59:32.642Z,30.60
2017-07-05T06:02:00.901Z,31.00
2017-07-05T06:04:29.225Z,31.30
2017-07-05T06:06:58.208Z,32.50
2017-07-05T06:09:26.402Z,32.50
2017-07-05T06:11:54.647Z,32.80
2017-07-05T06:14:22.907Z,33.00
2017-07-05T06:16:51.066Z,33.40
2017-07-05T06:19:19.285Z,33.60
2017-07-05T06:21:47.493Z,33.90
2017-07-05T06:24:15.708Z,34.20
2017-07-05T06:26:43.930Z,34.70
2017-07-05T06:29:12.895Z,35.80
2017-07-05T06:31:41.103Z,35.80
2017-07-05T06:34:09.294Z,36.60
2017-07-05T06:36:37.498Z,37.00
2017-07-05T06:39:05.715Z,37.20
2017-07-05T06:41:34.678Z,37.80
2017-07-05T06:44:02.893Z,37.70
2017-07-05T06:46:31.860Z,38.60
2017-07-05T06:49:00.066Z,38.60
2017-07-05T06:51:29.060Z,39.10
2017-07-05T06:53:57.257Z,39.00
2017-07-05T06:56:25.465Z,39.90
2017-07-05T06:58:53.682Z,40.40
2017-07-05T07:01:21.886Z,40.90
2017-07-05T07:03:50.094Z,40.60
2017-07-05T07:06:18.361Z,41.30
2017-07-05T07:08:46.577Z,41.10
2017-07-05T07:11:14.769Z,41.30
2017-07-05T07:13:43.752Z,41.30
2017-07-05T07:16:11.968Z,41.30
2017-07-05T07:18:40.242Z,40.60
2017-07-05T07:21:08.476Z,40.60
2017-07-05T07:23:36.686Z,41.00
2017-07-05T07:26:05.067Z,41.80
2017-07-05T07:28:33.345Z,41.90
2017-07-05T07:31:01.552Z,41.90
2017-07-05T07:33:29.783Z,41.60
2017-07-05T07:35:57.979Z,41.70
2017-07-05T07:38:26.191Z,41.90
2017-07-05T07:40:54.400Z,41.70
2017-07-05T07:43:22.584Z,41.90
2017-07-05T07:45:50.866Z,41.90
2017-07-05T07:48:19.087Z,42.50
2017-07-05T07:50:47.303Z,42.60
2017-07-05T07:53:15.511Z,42.10
2017-07-05T07:55:43.713Z,42.30
2017-07-05T07:58:11.926Z,42.40
2017-07-05T08:00:40.914Z,43.60
2017-07-05T08:03:09.110Z,43.60
2017-07-05T08:05:38.086Z,43.60
2017-07-05T08:08:06.283Z,43.60
2017-07-05T08:10:35.282Z,42.40
2017-07-05T08:13:03.473Z,42.50
2017-07-05T08:15:31.724Z,42.40
2017-07-05T08:17:59.945Z,43.00
2017-07-05T08:20:28.142Z,43.50
2017-07-05T08:22:56.590Z,43.50
2017-07-05T08:25:25.783Z,43.20
2017-07-05T08:27:53.969Z,43.10
2017-07-05T08:30:22.173Z,43.50
2017-07-05T08:32:50.381Z,44.50
2017-07-05T08:35:18.605Z,44.70
2017-07-05T08:37:46.860Z,43.90
2017-07-05T08:40:15.026Z,43.00
2017-07-05T08:42:43.329Z,42.30
2017-07-05T08:45:11.537Z,42.80
2017-07-05T08:47:39.738Z,43.00
2017-07-05T08:50:07.956Z,43.30
2017-07-05T08:52:36.213Z,43.30
2017-07-05T08:55:04.617Z,43.50
2017-07-05T08:57:33.879Z,43.80
2017-07-05T09:00:03.112Z,44.60
2017-07-05T09:02:32.409Z,44.90
2017-07-05T09:05:01.669Z,43.80
2017-07-05T09:07:30.875Z,43.40
2017-07-05T09:10:00.262Z,43.90
2017-07-05T09:12:29.169Z,43.90
2017-07-05T09:14:58.796Z,43.70
2017-07-05T09:17:28.138Z,44.20
2017-07-05T09:19:57.406Z,44.30
2017-07-05T09:22:26.604Z,42.80
2017-07-05T09:24:56.618Z,40.20
2017-07-05T09:27:25.679Z,40.30
2017-07-05T09:29:55.159Z,40.50
2017-07-05T09:32:24.421Z,41.50
2017-07-05T09:34:53.938Z,41.80
2017-07-05T09:37:23.491Z,41.50
2017-07-05T09:39:51.720Z,41.60
2017-07-05T09:42:19.942Z,42.50
2017-07-05T09:44:48.139Z,42.50
2017-07-05T09:47:16.391Z,42.80
2017-07-05T09:49:44.662Z,42.90
2017-07-05T09:52:12.913Z,42.10
2017-07-05T09:54:41.105Z,43.00
2017-07-05T09:57:09.297Z,42.00
2017-07-05T09:59:37.544Z,41.50
2017-07-05T10:02:05.753Z,40.30
2017-07-05T10:04:33.942Z,40.30
2017-07-05T10:09:36.834Z,42.80
2017-07-05T10:12:05.034Z,43.10
2017-07-05T10:14:33.240Z,43.50
2017-07-05T10:17:01.465Z,44.30
2017-07-05T10:19:29.681Z,44.90
2017-07-05T10:21:57.878Z,45.00
2017-07-05T10:24:26.087Z,45.50
2017-07-05T10:26:54.348Z,45.30
2017-07-05T10:29:22.563Z,45.20
2017-07-05T10:31:50.762Z,45.10
2017-07-05T10:34:18.993Z,44.70
2017-07-05T10:36:47.190Z,44.00
2017-07-05T10:39:15.398Z,43.50
2017-07-05T10:41:43.617Z,43.50
2017-07-05T10:44:11.839Z,42.10
2017-07-05T10:46:40.051Z,42.30
2017-07-05T10:49:08.254Z,42.50
2017-07-05T10:51:36.513Z,41.90
2017-07-05T10:54:04.742Z,41.50
2017-07-05T10:56:32.968Z,41.50
2017-07-05T10:59:01.338Z,42.00
2017-07-05T11:01:30.328Z,41.20
2017-07-05T11:03:58.522Z,41.10
2017-07-05T11:06:26.714Z,41.20
2017-07-05T11:08:55.194Z,39.50
2017-07-05T11:11:23.443Z,38.50
2017-07-05T11:13:51.657Z,36.60
2017-07-05T11:16:19.870Z,35.40
2017-07-05T11:18:48.071Z,34.50
2017-07-05T11:21:17.051Z,33.00
2017-07-05T11:23:45.240Z,32.90
2017-07-05T11:26:14.211Z,32.30
2017-07-05T11:28:42.429Z,32.30
2017-07-05T11:31:10.641Z,32.30
2017-07-05T11:33:38.895Z,32.10
2017-07-05T11:36:07.160Z,31.70
2017-07-05T11:38:36.126Z,31.30
2017-07-05T11:41:04.378Z,31.30
2017-07-05T11:43:32.566Z,31.30
2017-07-05T11:46:00.778Z,31.40
2017-07-05T11:48:28.976Z,31.60
2017-07-05T11:50:57.239Z,31.70
2017-07-05T11:53:26.217Z,30.90
2017-07-05T11:55:54.414Z,30.90
2017-07-05T11:58:23.398Z,30.70
2017-07-05T12:00:51.598Z,30.70
2017-07-05T12:03:19.804Z,30.80
2017-07-05T12:05:48.127Z,30.90
2017-07-05T12:08:17.090Z,31.00
2017-07-05T12:10:45.300Z,31.00
2017-07-05T12:13:14.266Z,31.10
2017-07-05T12:15:42.466Z,31.00
2017-07-05T12:18:11.434Z,31.20
2017-07-05T12:20:39.633Z,31.20
2017-07-05T12:23:08.620Z,31.00
2017-07-05T12:25:36.819Z,31.00
2017-07-05T12:28:05.121Z,30.90
2017-07-05T12:30:33.357Z,30.90
2017-07-05T12:33:01.519Z,31.00
2017-07-05T12:35:29.752Z,31.20
2017-07-05T12:37:57.930Z,31.10
2017-07-05T12:40:26.971Z,31.20
2017-07-05T12:42:55.157Z,31.10
2017-07-05T12:45:23.350Z,31.30
2017-07-05T12:47:51.560Z,31.20
2017-07-05T12:50:19.754Z,31.40
2017-07-05T12:52:48.028Z,31.40
2017-07-05T12:55:16.280Z,31.40
2017-07-05T12:57:44.552Z,31.30
2017-07-05T13:00:12.796Z,31.40
2017-07-05T13:02:41.197Z,31.20
2017-07-05T13:05:09.483Z,31.40
2017-07-05T13:07:37.689Z,31.20
2017-07-05T13:10:05.910Z,31.00
2017-07-05T13:12:34.154Z,31.00
2017-07-05T13:15:02.353Z,31.00
2017-07-05T13:17:30.562Z,31.20
2017-07-05T13:19:58.777Z,31.40
2017-07-05T13:22:27.749Z,31.40
2017-07-05T13:24:56.167Z,31.40
2017-07-05T13:27:24.357Z,31.50
2017-07-05T13:29:52.857Z,31.70
2017-07-05T13:32:21.176Z,31.90
2017-07-05T13:34:49.383Z,31.80
2017-07-05T13:37:17.593Z,32.00
2017-07-05T13:39:45.847Z,32.20
2017-07-05T13:42:14.091Z,32.20
2017-07-05T13:44:42.320Z,32.10
2017-07-05T13:47:10.518Z,31.90
2017-07-05T13:49:38.711Z,31.70
2017-07-05T13:52:06.930Z,31.40
2017-07-05T13:54:35.142Z,31.60
2017-07-05T13:57:03.334Z,31.80
2017-07-05T13:59:31.556Z,32.10
2017-07-05T14:01:59.781Z,32.10
2017-07-05T14:04:28.058Z,32.10
2017-07-05T14:06:56.295Z,32.20
2017-07-05T14:09:24.623Z,31.90
2017-07-05T14:11:52.837Z,31.80
2017-07-05T14:14:21.046Z,31.80
2017-07-05T14:16:49.258Z,31.80
2017-07-05T14:19:17.469Z,31.70
2017-07-05T14:21:45.766Z,31.60
2017-07-05T14:24:14.073Z,31.70
2017-07-05T14:26:43.046Z,31.40
2017-07-05T14:29:11.264Z,31.40
2017-07-05T14:31:39.482Z,31.20
2017-07-05T14:34:07.688Z,31.20
2017-07-05T14:36:35.904Z,31.20
2017-07-05T14:39:04.128Z,31.30
2017-07-05T14:41:32.331Z,31.40
2017-07-05T14:44:01.309Z,31.80
2017-07-05T14:46:29.519Z,31.80
2017-07-05T14:48:57.816Z,32.10
2017-07-05T14:51:26.051Z,32.10
2017-07-05T14:53:55.017Z,32.30
2017-07-05T14:56:23.240Z,32.30
2017-07-05T14:58:51.448Z,32.10
2017-07-05T15:01:19.657Z,32.10
2017-07-05T15:03:48.653Z,32.00
2017-07-05T15:06:16.879Z,32.00
2017-07-05T15:08:45.102Z,31.70
2017-07-05T15:11:13.300Z,31.80
2017-07-05T15:13:41.527Z,31.80
2017-07-05T15:16:09.734Z,32.00
2017-07-05T15:18:37.964Z,32.00
2017-07-05T15:21:06.177Z,32.00
2017-07-05T15:23:34.455Z,31.90
2017-07-05T15:26:02.661Z,31.70
2017-07-05T15:28:30.878Z,31.60
2017-07-05T15:30:59.278Z,31.70
2017-07-05T15:33:27.566Z,31.90
2017-07-05T15:35:55.763Z,32.00
2017-07-05T15:38:23.987Z,32.20
2017-07-05T15:40:52.212Z,32.40
2017-07-05T15:43:20.401Z,32.40
2017-07-05T15:45:48.614Z,32.40
2017-07-05T15:48:16.844Z,32.20
2017-07-05T15:50:45.925Z,32.10
2017-07-05T15:53:14.941Z,32.00
2017-07-05T15:55:43.161Z,31.90
2017-07-05T15:58:11.362Z,31.90
2017-07-05T16:00:39.583Z,31.40
2017-07-05T16:03:07.785Z,30.80
2017-07-05T16:05:36.006Z,30.20
2017-07-05T16:08:04.977Z,29.10
2017-07-05T16:10:33.176Z,29.10
2017-07-05T16:13:02.155Z,28.70
2017-07-05T16:15:30.360Z,28.70
2017-07-05T16:17:58.643Z,28.70
2017-07-05T16:20:26.891Z,28.90
2017-07-05T16:22:55.850Z,29.00
2017-07-05T16:25:24.289Z,29.00
2017-07-05T16:27:52.565Z,29.20
2017-07-05T16:30:20.853Z,29.30
2017-07-05T16:32:49.066Z,29.20
2017-07-05T16:35:17.281Z,29.10
2017-07-05T16:37:45.660Z,29.20
2017-07-05T16:40:13.941Z,29.40
2017-07-05T16:42:42.936Z,29.60
2017-07-05T16:45:11.140Z,29.60
2017-07-05T16:47:39.334Z,29.30
2017-07-05T16:50:07.550Z,29.10
2017-07-05T16:52:35.746Z,28.80
2017-07-05T16:55:03.965Z,28.40
2017-07-05T16:57:32.173Z,28.00
2017-07-05T17:00:00.379Z,27.70
2017-07-05T17:02:28.635Z,27.50
2017-07-05T17:04:56.855Z,27.30
2017-07-05T17:07:25.063Z,27.40
2017-07-05T17:09:53.269Z,27.50
2017-07-05T17:12:22.239Z,28.00
2017-07-05T17:14:50.452Z,27.90
2017-07-05T17:17:18.663Z,28.30
2017-07-05T17:19:46.992Z,28.50
2017-07-05T17:22:15.966Z,28.60
2017-07-05T17:24:44.170Z,28.50
2017-07-05T17:27:12.447Z,28.60
2017-07-05T17:29:41.423Z,28.30
2017-07-05T17:32:09.626Z,28.30
2017-07-05T17:34:37.839Z,28.30
2017-07-05T17:37:06.058Z,28.20
2017-07-05T17:39:34.274Z,28.20
2017-07-05T17:42:02.475Z,28.30
2017-07-05T17:44:30.679Z,28.10
2017-07-05T17:46:58.886Z,28.10
2017-07-05T17:49:27.135Z,27.90
2017-07-05T17:51:55.409Z,27.80
2017-07-05T17:54:23.616Z,27.70
2017-07-05T17:56:51.832Z,27.60
2017-07-05T17:59:20.039Z,27.50
2017-07-05T18:01:48.332Z,27.40
2017-07-05T18:04:17.318Z,26.90
2017-07-05T18:06:45.717Z,26.90
2017-07-05T18:09:14.020Z,26.70
2017-07-05T18:11:42.248Z,26.60
2017-07-05T18:14:10.439Z,26.50
2017-07-05T18:16:38.908Z,26.50
2017-07-05T18:19:07.081Z,26.50
2017-07-05T18:21:35.304Z,26.40
2017-07-05T18:24:03.502Z,26.50
2017-07-05T18:26:31.756Z,26.40
2017-07-05T18:28:59.956Z,26.40
2017-07-05T18:31:28.180Z,26.40
2017-07-05T18:33:56.385Z,26.50
2017-07-05T18:36:24.599Z,26.50
2017-07-05T18:38:52.826Z,26.40
2017-07-05T18:41:21.028Z,26.30
2017-07-05T18:43:49.284Z,26.20
2017-07-05T18:46:17.476Z,26.00
2017-07-05T18:48:45.668Z,25.90
2017-07-05T18:51:13.924Z,25.80
2017-07-05T18:53:42.248Z,25.70
2017-07-05T18:56:10.395Z,25.60
2017-07-05T18:58:38.597Z,25.60
2017-07-05T19:01:07.002Z,25.40
2017-07-05T19:03:35.987Z,25.10
2017-07-05T19:06:04.197Z,25.10
2017-07-05T19:08:32.430Z,25.10
2017-07-05T19:11:01.411Z,25.00
2017-07-05T19:13:29.635Z,24.90
2017-07-05T19:15:57.846Z,24.90
2017-07-05T19:18:26.158Z,24.80
2017-07-05T19:20:55.134Z,24.70
2017-07-05T19:23:23.368Z,24.70
2017-07-05T19:25:51.573Z,24.60
2017-07-05T19:28:19.980Z,24.50
2017-07-05T19:30:48.153Z,24.40
2017-07-05T19:33:17.146Z,24.30
2017-07-05T19:35:45.374Z,24.20
2017-07-05T19:38:13.583Z,24.10
2017-07-05T19:40:41.805Z,24.00
2017-07-05T19:43:10.023Z,23.90
2017-07-05T19:45:38.242Z,23.80
2017-07-05T19:48:07.232Z,23.50
2017-07-05T19:50:35.407Z,23.50
2017-07-05T19:53:04.447Z,23.50
2017-07-05T19:55:32.675Z,23.40
2017-07-05T19:58:00.898Z,23.30
2017-07-05T20:00:29.253Z,23.20
2017-07-05T20:02:57.467Z,23.10
2017-07-05T20:05:25.706Z,23.10
2017-07-05T20:07:53.913Z,23.00
2017-07-05T20:10:22.136Z,23.00
2017-07-05T20:12:50.357Z,23.00
2017-07-05T20:15:18.543Z,22.90
2017-07-05T20:17:46.779Z,22.80
2017-07-05T20:20:15.744Z,22.70
2017-07-05T20:22:43.968Z,22.70
2017-07-05T20:25:12.235Z,22.60
2017-07-05T20:27:40.457Z,22.60
2017-07-05T20:30:08.679Z,22.50
2017-07-05T20:32:36.873Z,22.50
2017-07-05T20:35:05.214Z,22.50
2017-07-05T20:37:33.406Z,22.40
2017-07-05T20:40:02.375Z,22.40
2017-07-05T20:42:30.694Z,22.40
2017-07-05T20:44:58.903Z,22.40
2017-07-05T20:47:27.141Z,22.40
2017-07-05T20:49:55.422Z,22.40
2017-07-05T20:52:23.696Z,22.30
2017-07-05T20:54:51.902Z,22.20
2017-07-05T20:57:20.117Z,22.20
2017-07-05T20:59:48.318Z,22.20
2017-07-05T21:02:16.622Z,22.10
2017-07-05T21:04:44.874Z,22.10
2017-07-05T21:07:13.364Z,22.00
2017-07-05T21:09:41.572Z,21.90
2017-07-05T21:12:09.792Z,21.80
2017-07-05T21:14:38.011Z,21.80
2017-07-05T21:17:06.203Z,21.80
2017-07-05T21:19:34.539Z,21.70
2017-07-05T21:22:03.519Z,21.60
2017-07-05T21:24:31.718Z,21.50
2017-07-05T21:26:59.920Z,21.50
2017-07-05T21:29:28.126Z,21.50
2017-07-05T21:31:56.332Z,21.40
2017-07-05T21:34:24.618Z,21.30
2017-07-05T21:36:53.707Z,21.00
2017-07-05T21:39:22.805Z,21.00
2017-07-05T21:41:51.774Z,21.00
2017-07-05T21:44:19.976Z,21.00
2017-07-05T21:46:48.964Z,20.80
2017-07-05T21:49:17.169Z,20.80
2017-07-05T21:51:45.401Z,20.70
2017-07-05T21:54:13.707Z,20.70
2017-07-05T21:56:42.685Z,20.60
2017-07-05T21:59:10.894Z,20.60
2017-07-05T22:01:39.162Z,20.60
2017-07-05T22:04:07.429Z,20.50
2017-07-05T22:06:36.518Z,20.50
2017-07-05T22:09:05.497Z,20.50
2017-07-05T22:11:33.717Z,20.50
2017-07-05T22:14:01.917Z,20.50
2017-07-05T22:16:30.125Z,20.40
2017-07-05T22:18:58.527Z,20.40
2017-07-05T22:21:27.510Z,20.40
2017-07-05T22:23:55.718Z,20.40
2017-07-05T22:26:23.996Z,20.30
2017-07-05T22:28:52.264Z,20.20
2017-07-05T22:31:20.507Z,20.10
2017-07-05T22:33:48.718Z,20.10
2017-07-05T22:36:16.925Z,20.10
2017-07-05T22:38:45.144Z,19.80
2017-07-05T22:41:13.345Z,19.60
2017-07-05T22:43:41.547Z,19.70
2017-07-05T22:46:09.786Z,19.70
2017-07-05T22:48:38.750Z,19.60
2017-07-05T22:51:06.958Z,19.60
2017-07-05T22:53:35.158Z,19.50
2017-07-05T22:56:03.381Z,19.50
2017-07-05T22:58:31.593Z,19.50
2017-07-05T23:00:59.819Z,19.40
2017-07-05T23:03:28.137Z,19.40
2017-07-05T23:05:57.148Z,19.20
2017-07-05T23:08:25.439Z,19.20
2017-07-05T23:10:53.637Z,19.30
2017-07-05T23:13:21.860Z,19.30
2017-07-05T23:15:50.824Z,19.20
2017-07-05T23:18:19.235Z,19.20
2017-07-05T23:20:48.203Z,19.20
2017-07-05T23:23:16.610Z,19.20
2017-07-05T23:25:44.904Z,19.20
2017-07-05T23:28:13.180Z,19.20
2017-07-05T23:30:41.404Z,19.20
2017-07-05T23:33:09.603Z,19.10
2017-07-05T23:35:37.842Z,19.10
2017-07-05T23:38:06.053Z,19.10
2017-07-05T23:40:35.044Z,18.90
2017-07-05T23:43:03.264Z,18.80
2017-07-05T23:45:31.537Z,18.90
2017-07-05T23:47:59.749Z,18.90
2017-07-05T23:50:27.937Z,18.90
2017-07-05T23:52:56.131Z,18.90
2017-07-05T23:55:24.404Z,18.80
2017-07-05T23:57:52.568Z,18.80
